Belgrade, MT

10:56 AM MDT on October 24, 2014 (GMT -0600)
Sheepshank Drive | Change Station
CLOSE
Current Station
Personal Weather Station
Location: W of Belgrade, MT
Elevation: 4420 ft
Nearby Weather Stations

Elev 4420 ft 45.78 °N, 111.24 °W | Updated 7 seconds ago

Overcast
Overcast
51.4 °F
Feels Like 51.4 °F
N
1.1
Wind Variable Wind from South
Gusts 1.1 mph

Today
High -- | Low -- °F
--% Chance of Precip.
Yesterday
High -- | Low -- °F
Precip. -- in
7:53 AM 6:23 PM
New Moon, 1% visible
Pressure 30.06 in
Visibility 10.0 miles
Clouds Few 7000 ft
Overcast 9500 ft
Dew Point 42 °F
Humidity 69%
Rainfall 0.00 in
Snow Depth 0 in
UV 0 out of 12
Pollen 1.30 out of 12
Air Quality Not available.
Flu Activity No Activity
METAR KBZN 241556Z 26004KT 10SM FEW070 OVC095 11/04 A3009 RMK AO2 SLP179 T01060039

More Conditions Fewer Conditions

Pressure 30.06 in
Visibility 10.0 miles
Clouds Few 7000 ft
Overcast 9500 ft
Dew Point 42 °F
Humidity 69%
Rainfall 0.00 in
Snow Depth 0 in
UV 0 out of 12
Pollen 1.30 out of 12
Air Quality Not available.
Flu Activity No Activity
METAR KBZN 241556Z 26004KT 10SM FEW070 OVC095 11/04 A3009 RMK AO2 SLP179 T01060039

More Conditions Fewer Conditions

10-Day Weather Forecast

Almanac

Astronomy

Oct. 24, 2014 Rise Set
Actual Time 7:53 AM MDT 6:23 PM MDT
Civil Twilight 7:23 AM MDT 6:53 PM MDT
Nautical Twilight 6:48 AM MDT 7:28 PM MDT
Astronomical Twilight 6:13 AM MDT 8:02 PM MDT
Moon 8:38 AM MDT 7:03 PM MDT
Length of Visible Light 11h 30m
Length of Day
10h 29m
Tomorrow will be 3m 0s shorter.
New Moon, 1% of the Moon is Illuminated
Today
New Moon
Oct 30
First Quarter
Nov 6
Full
Nov 14
Last Quarter
Nov 22
New

Today's Extremes

State Highs State Lows

Community

WunderPhotos

Upload Photos

1,764,609 photos uploaded!

WunderBlogs® & News

By Dr. Jeff Masters
Director of Meteorology, Weather Underground
By Kari Strenfel
Meteorologist, Weather Underground
By Christopher C. Burt
Weather Historian, Weather Underground
October 24, 2014
October 24, 2014
October 24, 2014

Nearby

Snow Depth

Station Depth Elevation
Sacajawea 0 in 6550 ft
Brackett Creek 1 in 7320 ft
Porcupine 0 in 6500 ft
South Fork Shields 1 in 8100 ft
Albro Lake 1 in 8300 ft

Earthquake Activity

City Distance Mag. Time & Date
No recent earthquake activity has been reported nearby.
Minimum magnitude displayed is 2.5.

Coastal Water Temperatures

Place Temperature
No Stations Reporting

Nearby Weather Stations